Time;durP1;ratioP1;P1;durP2;ratioP2;P2;SDS_P1;SDS_P2;PMS_P1;PMS_P2;Temp;Humidity;BMP_temperature;BMP_pressure;BME280_temperature;BME280_humidity;BME280_pressure;Samples;Min_cycle;Max_cycle;Signal;HPM_P1;HPM_P2
2022/04/27 00:02:23;;;;;;;10.00;9.00;;;;;;;14.07;58.85;99080.25;7031846;28;20254;-80
2022/04/27 00:05:44;;;;;;;10.67;8.90;;;;;;;14.03;58.73;99057.34;7031818;28;20278;-80
2022/04/27 00:09:06;;;;;;;9.73;8.70;;;;;;;14.01;59.32;99058.59;7031998;28;20214;-80
2022/04/27 00:12:29;;;;;;;10.67;9.40;;;;;;;13.91;59.10;99055.56;7032573;28;20218;-80
2022/04/27 00:15:51;;;;;;;13.50;10.40;;;;;;;13.46;60.50;99045.88;7031797;28;20290;-80
2022/04/27 00:19:12;;;;;;;11.70;9.90;;;;;;;13.55;60.39;99066.22;7032624;28;20213;-80
2022/04/27 00:22:34;;;;;;;11.07;9.93;;;;;;;13.52;60.58;99059.34;7032484;28;20310;-80
2022/04/27 00:25:55;;;;;;;13.87;10.50;;;;;;;13.44;60.30;99069.63;7032634;28;20714;-80
2022/04/27 00:29:18;;;;;;;11.37;10.17;;;;;;;13.72;60.31;99079.06;7043131;28;20227;-80
2022/04/27 00:32:40;;;;;;;12.97;10.70;;;;;;;13.94;59.25;99063.25;7031667;28;20231;-80
2022/04/27 00:36:01;;;;;;;12.47;10.20;;;;;;;13.73;58.87;99033.78;7030651;28;20595;-80
2022/04/27 00:39:23;;;;;;;13.00;10.67;;;;;;;13.56;59.39;99068.72;7029991;28;20197;-80
2022/04/27 00:42:45;;;;;;;13.80;11.77;;;;;;;13.64;59.99;99049.47;7031411;28;20233;-80
2022/04/27 00:46:09;;;;;;;13.93;11.30;;;;;;;13.84;59.16;99080.00;7035685;28;20230;-80
2022/04/27 00:49:31;;;;;;;13.70;12.30;;;;;;;13.74;59.67;99076.13;7037968;28;20214;-80
2022/04/27 00:52:53;;;;;;;14.70;12.07;;;;;;;13.78;60.01;99082.75;7037947;28;20311;-80
2022/04/27 00:56:16;;;;;;;14.10;12.37;;;;;;;14.05;59.27;99084.25;7040012;28;20697;-79
2022/04/27 00:59:39;;;;;;;12.70;11.17;;;;;;;14.25;58.61;99079.50;7040465;28;20330;-80
2022/04/27 01:03:02;;;;;;;13.70;12.13;;;;;;;14.30;58.06;99075.09;7037186;28;20225;-80
2022/04/27 01:06:23;;;;;;;15.00;12.27;;;;;;;14.35;57.85;99080.69;7035615;28;20226;-79
2022/04/27 01:09:45;;;;;;;14.50;12.47;;;;;;;13.84;58.28;99033.09;7035699;28;20216;-80
2022/04/27 01:13:07;;;;;;;15.90;13.07;;;;;;;14.07;58.53;99092.97;7036457;28;20236;-80
2022/04/27 01:16:29;;;;;;;15.07;12.97;;;;;;;14.11;59.38;99095.00;7035371;28;20211;-80
2022/04/27 01:19:52;;;;;;;13.83;12.27;;;;;;;14.06;58.80;99107.59;7035801;28;20698;-79
2022/04/27 01:23:15;;;;;;;15.50;12.80;;;;;;;14.32;58.72;99094.69;7035931;28;20204;-80
2022/04/27 01:26:37;;;;;;;13.83;11.93;;;;;;;14.42;58.15;99105.88;7035284;28;20215;-80
2022/04/27 01:29:59;;;;;;;14.60;12.97;;;;;;;14.54;57.66;99101.38;7035398;28;20201;-80
2022/04/27 01:33:21;;;;;;;14.57;12.93;;;;;;;14.65;56.77;99086.22;7035202;28;20339;-80
2022/04/27 01:36:42;;;;;;;16.83;14.17;;;;;;;14.28;58.36;99093.44;7034827;28;20245;-79
2022/04/27 01:40:07;;;;;;;16.37;14.30;;;;;;;14.03;58.96;99089.03;7040965;28;20208;-80
2022/04/27 01:43:29;;;;;;;17.00;13.80;;;;;;;14.21;58.67;99087.25;7042344;28;20193;-79
2022/04/27 01:46:50;;;;;;;17.67;14.17;;;;;;;14.30;58.03;99082.38;7033221;28;20248;-80
2022/04/27 01:50:12;;;;;;;17.77;14.97;;;;;;;13.95;58.70;99079.31;7034034;28;20236;-80
2022/04/27 01:57:14;;;;;;;18.13;15.07;;;;;;;14.10;59.04;99106.09;7032125;28;20238;-80
2022/04/27 02:00:36;;;;;;;17.53;14.07;;;;;;;14.27;58.65;99104.53;7033527;28;20231;-80
2022/04/27 02:03:57;;;;;;;15.33;13.40;;;;;;;14.28;58.35;99112.44;7033359;28;20310;-79
2022/04/27 02:07:19;;;;;;;14.80;12.70;;;;;;;14.23;58.07;99103.31;7032962;28;20270;-80
2022/04/27 02:10:40;;;;;;;17.03;14.47;;;;;;;14.55;57.48;99113.88;7034388;28;20252;-79
2022/04/27 02:14:03;;;;;;;17.17;15.20;;;;;;;14.61;57.47;99104.00;7027897;28;20197;-80
2022/04/27 02:17:25;;;;;;;18.07;14.70;;;;;;;14.29;58.44;99111.38;7032295;28;20292;-80
2022/04/27 02:20:46;;;;;;;17.60;12.60;;;;;;;14.51;57.85;99109.94;7033420;28;20217;-80
2022/04/27 02:24:08;;;;;;;13.23;11.80;;;;;;;14.50;58.20;99118.28;7034209;28;20225;-80
2022/04/27 02:27:30;;;;;;;16.60;12.90;;;;;;;14.39;57.95;99113.63;7033635;28;20215;-80
2022/04/27 02:30:52;;;;;;;17.50;13.23;;;;;;;13.87;59.40;99112.09;7033665;28;20233;-80
2022/04/27 02:34:14;;;;;;;16.27;12.87;;;;;;;14.17;58.45;99106.88;7032748;28;20206;-80
2022/04/27 02:37:36;;;;;;;16.00;13.33;;;;;;;14.42;58.32;99124.00;7030956;28;21043;-80
2022/04/27 02:40:58;;;;;;;15.20;12.57;;;;;;;14.69;57.50;99122.72;7033313;28;20309;-80
2022/04/27 02:44:19;;;;;;;14.30;12.07;;;;;;;14.66;57.38;99120.44;7032570;28;20222;-80
2022/04/27 02:47:42;;;;;;;13.67;11.30;;;;;;;14.44;57.56;99089.34;7032449;28;20302;-80
2022/04/27 02:54:43;;;;;;;14.60;11.10;;;;;;;14.61;57.51;99131.13;7032684;28;20202;-80
2022/04/27 02:58:04;;;;;;;16.13;12.80;;;;;;;14.65;57.22;99135.09;7032173;28;20279;-80
2022/04/27 03:01:26;;;;;;;13.53;11.50;;;;;;;14.72;57.00;99114.13;7032220;28;20230;-80
2022/04/27 03:04:49;;;;;;;14.20;11.77;;;;;;;14.67;57.25;99136.53;7032416;28;20686;-80
2022/04/27 03:08:11;;;;;;;15.70;13.10;;;;;;;14.41;57.67;99111.50;7031858;28;20276;-79
2022/04/27 03:11:32;;;;;;;15.93;14.17;;;;;;;14.63;58.00;99129.06;7033629;28;20240;-80
2022/04/27 03:14:54;;;;;;;17.43;13.57;;;;;;;14.83;56.71;99132.41;7032773;28;20201;-80
2022/04/27 03:18:19;;;;;;;19.80;15.20;;;;;;;14.63;56.68;99132.59;7031474;28;20212;-80
2022/04/27 03:21:42;;;;;;;18.67;15.73;;;;;;;14.54;57.46;99136.66;7031915;28;20278;-80
2022/04/27 03:25:05;;;;;;;22.83;16.63;;;;;;;14.53;57.49;99136.84;7031976;28;20225;-79
2022/04/27 03:28:26;;;;;;;28.97;21.23;;;;;;;13.45;59.13;99126.28;7031677;28;20208;-80
2022/04/27 03:31:48;;;;;;;30.83;21.63;;;;;;;13.59;60.06;99127.06;7031504;28;20220;-80
2022/04/27 03:35:10;;;;;;;21.67;16.00;;;;;;;14.20;59.30;99147.13;7032333;28;20666;-80
2022/04/27 03:38:33;;;;;;;29.67;20.93;;;;;;;14.33;57.86;99147.88;7029925;28;20238;-80
2022/04/27 03:41:54;;;;;;;22.20;16.23;;;;;;;14.51;57.87;99150.66;7031905;28;20705;-79
2022/04/27 03:45:19;;;;;;;15.10;12.13;;;;;;;14.68;57.16;99142.78;7031442;28;20227;-80
2022/04/27 03:48:41;;;;;;;31.20;21.53;;;;;;;14.49;57.27;99154.63;7029980;28;20264;-80
2022/04/27 03:52:03;;;;;;;33.10;22.30;;;;;;;13.30;61.10;99143.84;7030777;28;20222;-80
2022/04/27 03:55:28;;;;;;;37.10;22.90;;;;;;;13.19;61.53;99136.41;7032074;28;20677;-80
2022/04/27 03:58:49;;;;;;;30.70;19.97;;;;;;;13.80;60.02;99132.16;7033040;28;20206;-80
2022/04/27 04:02:11;;;;;;;24.83;17.77;;;;;;;14.03;59.59;99151.38;7033814;28;20225;-80
2022/04/27 04:05:32;;;;;;;18.83;14.90;;;;;;;14.28;59.24;99157.72;7033043;28;20240;-80
2022/04/27 04:08:54;;;;;;;18.90;15.33;;;;;;;13.52;59.65;99143.34;7032533;28;20230;-79
2022/04/27 04:12:17;;;;;;;21.40;16.90;;;;;;;13.94;58.95;99117.47;7027890;28;20302;-80
2022/04/27 04:15:38;;;;;;;21.07;16.40;;;;;;;14.17;58.55;99125.88;7032651;28;20212;-79
2022/04/27 04:19:00;;;;;;;21.53;16.70;;;;;;;14.50;58.10;99162.56;7031946;28;20296;-80
2022/04/27 04:22:22;;;;;;;24.30;16.90;;;;;;;14.16;58.27;99129.63;7032629;28;20275;-79
2022/04/27 04:29:24;;;;;;;25.13;17.20;;;;;;;13.90;59.89;99176.72;7035901;28;20201;-81
2022/04/27 04:32:45;;;;;;;21.87;16.57;;;;;;;13.86;59.45;99189.03;7033512;28;20226;-82
2022/04/27 04:36:08;;;;;;;23.13;16.60;;;;;;;13.82;60.01;99193.25;7034172;28;20737;-80
2022/04/27 04:39:30;;;;;;;21.80;15.20;;;;;;;14.27;59.14;99192.16;7033298;28;20343;-83
2022/04/27 04:42:52;;;;;;;20.40;15.37;;;;;;;13.82;58.56;99170.72;7028181;28;20230;-82
2022/04/27 04:46:15;;;;;;;20.40;15.73;;;;;;;14.27;58.60;99211.13;7015977;28;20260;-79
2022/04/27 04:49:36;;;;;;;20.30;15.47;;;;;;;14.58;57.90;99207.59;7025181;28;20234;-82
2022/04/27 04:52:58;;;;;;;19.10;15.27;;;;;;;14.55;57.48;99213.44;7034236;28;20226;-81
2022/04/27 04:56:20;;;;;;;17.77;14.40;;;;;;;14.58;57.08;99205.69;7033876;28;20223;-82
2022/04/27 04:59:41;;;;;;;23.50;16.13;;;;;;;14.45;57.06;99203.06;7039009;28;20202;-82
2022/04/27 05:03:04;;;;;;;19.57;14.00;;;;;;;14.53;57.42;99232.69;7042890;28;20236;-80
2022/04/27 05:06:26;;;;;;;17.27;14.03;;;;;;;14.74;57.46;99234.19;7032655;28;20227;-80
2022/04/27 05:09:48;;;;;;;19.27;14.10;;;;;;;14.59;56.74;99192.97;7033684;28;20268;-80
2022/04/27 05:13:10;;;;;;;20.50;14.60;;;;;;;14.73;56.68;99213.50;7020351;28;20208;-80
2022/04/27 05:16:33;;;;;;;24.80;16.33;;;;;;;14.74;57.08;99228.75;7027210;28;20206;-81
2022/04/27 05:19:55;;;;;;;24.33;17.33;;;;;;;14.81;57.05;99233.06;7033022;28;20615;-80
2022/04/27 05:23:17;;;;;;;26.70;18.03;;;;;;;14.94;56.62;99242.97;7035332;28;20200;-81
2022/04/27 05:26:39;;;;;;;24.53;18.30;;;;;;;14.44;56.52;99151.75;7014188;28;20281;-81
2022/04/27 05:33:40;;;;;;;23.47;17.93;;;;;;;15.00;56.89;99240.22;7020444;28;20205;-81
2022/04/27 05:37:03;;;;;;;22.90;17.47;;;;;;;15.22;55.76;99243.34;7017115;28;20235;-81
2022/04/27 05:40:26;;;;;;;24.33;18.33;;;;;;;14.82;56.04;99242.84;7008555;28;20239;-81
2022/04/27 05:43:47;;;;;;;22.53;17.40;;;;;;;15.25;55.49;99253.75;7008933;28;20254;-81
2022/04/27 05:47:09;;;;;;;25.90;19.30;;;;;;;14.94;55.21;99262.00;7007708;28;20222;-81
2022/04/27 05:50:34;;;;;;;25.97;19.43;;;;;;;14.35;56.81;99262.44;7007703;28;20219;-81
2022/04/27 05:53:57;;;;;;;23.27;17.53;;;;;;;14.98;56.84;99276.78;7007681;28;20667;-81
2022/04/27 05:57:18;;;;;;;22.87;17.67;;;;;;;15.18;55.78;99270.13;7007233;28;20203;-81
2022/04/27 06:00:41;;;;;;;22.70;16.47;;;;;;;15.31;55.11;99274.59;7008298;28;20221;-81
2022/04/27 06:04:03;;;;;;;22.50;17.13;;;;;;;14.97;55.54;99277.81;7008466;28;20209;-81
2022/04/27 06:07:25;;;;;;;24.03;17.40;;;;;;;15.21;55.59;99272.38;7006983;28;20221;-81
2022/04/27 06:10:47;;;;;;;21.87;17.40;;;;;;;15.47;54.84;99283.06;7008933;28;20232;-81
2022/04/27 06:14:09;;;;;;;22.37;17.57;;;;;;;15.36;55.36;99286.50;7008467;28;20204;-81
2022/04/27 06:17:31;;;;;;;23.50;17.40;;;;;;;15.20;54.99;99278.03;7005993;28;20213;-81
2022/04/27 06:20:53;;;;;;;24.47;18.50;;;;;;;15.38;55.15;99286.25;7008402;28;20233;-81
2022/04/27 06:24:14;;;;;;;23.37;18.60;;;;;;;15.44;54.68;99239.16;7007428;28;20246;-81
2022/04/27 06:27:37;;;;;;;24.33;18.20;;;;;;;15.57;55.03;99247.19;7007574;28;20268;-81
2022/04/27 06:30:59;;;;;;;23.53;17.13;;;;;;;15.52;54.44;99271.50;7008317;28;20310;-82
2022/04/27 06:34:20;;;;;;;23.77;18.40;;;;;;;14.90;55.18;99241.75;7007369;28;20211;-81
2022/04/27 06:37:42;;;;;;;26.50;19.60;;;;;;;14.83;56.32;99304.28;7005934;28;20218;-81
2022/04/27 06:41:05;;;;;;;25.87;18.77;;;;;;;15.35;55.76;99303.03;7007392;28;20219;-81
2022/04/27 06:44:28;;;;;;;23.33;17.53;;;;;;;15.16;55.04;99310.25;7006585;28;20229;-81
2022/04/27 06:47:50;;;;;;;23.43;17.50;;;;;;;15.23;55.21;99310.22;7006269;28;20233;-81
2022/04/27 06:51:11;;;;;;;24.77;18.70;;;;;;;15.04;54.78;99313.94;7006943;28;20238;-81
2022/04/27 06:54:33;;;;;;;23.37;17.80;;;;;;;15.16;55.54;99321.13;7007001;28;20206;-81
2022/04/27 06:57:55;;;;;;;25.47;17.80;;;;;;;15.05;55.67;99331.88;7006162;28;20266;-81
2022/04/27 07:01:18;;;;;;;24.43;17.40;;;;;;;14.36;55.96;99299.34;7006797;28;20692;-81
2022/04/27 07:04:41;;;;;;;22.07;16.83;;;;;;;15.51;55.41;99346.75;7005864;28;20201;-81
2022/04/27 07:08:04;;;;;;;24.50;18.07;;;;;;;15.10;55.92;99323.91;7005034;28;20228;-81
2022/04/27 07:11:26;;;;;;;22.07;15.43;;;;;;;14.86;56.46;99355.41;7005707;28;20217;-81
2022/04/27 07:14:48;;;;;;;17.17;13.53;;;;;;;15.45;54.61;99355.00;7005602;28;20261;-81
2022/04/27 07:18:12;;;;;;;18.27;12.97;;;;;;;15.98;53.72;99350.69;7004836;28;20697;-81
2022/04/27 07:21:34;;;;;;;15.83;12.27;;;;;;;15.88;53.65;99348.50;7004847;28;20230;-81
2022/04/27 07:24:55;;;;;;;16.13;12.50;;;;;;;14.55;55.74;99351.81;7005475;28;20202;-81
2022/04/27 07:28:17;;;;;;;16.00;11.90;;;;;;;15.72;53.58;99345.50;7005836;28;20202;-81
2022/04/27 07:31:39;;;;;;;17.07;12.10;;;;;;;16.19;51.73;99363.81;7005652;28;20224;-80
2022/04/27 07:35:02;;;;;;;13.03;10.33;;;;;;;15.43;52.00;99352.47;7005325;28;20228;-81
2022/04/27 07:38:23;;;;;;;14.83;11.30;;;;;;;15.58;54.10;99360.28;7002431;28;20216;-80
2022/04/27 07:41:45;;;;;;;14.30;10.80;;;;;;;16.09;50.67;99328.97;7003607;28;20242;-81
2022/04/27 07:45:08;;;;;;;12.77;10.33;;;;;;;15.33;52.07;99337.75;7003958;28;20327;-80
2022/04/27 07:48:32;;;;;;;10.90;9.73;;;;;;;16.55;50.65;99367.38;7003257;28;20680;-80
2022/04/27 07:51:55;;;;;;;11.63;9.80;;;;;;;16.97;48.82;99374.53;7003004;28;20601;-81
2022/04/27 07:55:17;;;;;;;12.40;10.10;;;;;;;15.42;52.99;99385.31;7002548;28;20253;-81
2022/04/27 07:58:38;;;;;;;11.60;9.73;;;;;;;16.14;51.08;99374.53;7002636;28;20297;-81
2022/04/27 08:02:00;;;;;;;14.33;10.37;;;;;;;16.18;51.12;99392.94;7003003;28;20228;-81
2022/04/27 08:05:22;;;;;;;13.13;10.27;;;;;;;14.85;53.88;99409.91;7003569;28;20900;-81
2022/04/27 08:08:45;;;;;;;10.53;9.00;;;;;;;15.77;50.89;99368.25;7002339;28;20209;-80
2022/04/27 08:12:07;;;;;;;11.33;9.10;;;;;;;16.67;49.49;99402.81;7002889;28;20291;-80
2022/04/27 08:15:28;;;;;;;10.37;9.27;;;;;;;16.53;47.59;99395.88;7003240;28;20205;-80
2022/04/27 08:18:50;;;;;;;9.20;8.23;;;;;;;15.58;48.91;99395.63;7001954;28;20227;-80
2022/04/27 08:22:12;;;;;;;8.07;7.13;;;;;;;15.70;49.36;99402.81;7002320;28;20230;-80
2022/04/27 08:25:35;;;;;;;8.63;7.10;;;;;;;16.06;48.68;99411.06;7002620;28;20728;-80
2022/04/27 08:28:56;;;;;;;8.30;7.47;;;;;;;15.61;49.67;99389.72;7003300;28;20209;-80
2022/04/27 08:32:18;;;;;;;8.73;7.03;;;;;;;16.62;46.58;99408.94;7004508;28;20224;-80
2022/04/27 08:35:39;;;;;;;8.63;7.60;;;;;;;16.13;48.46;99402.81;7004782;28;20701;-80
2022/04/27 08:39:02;;;;;;;8.20;6.87;;;;;;;16.52;46.61;99367.81;7003719;28;20204;-80
2022/04/27 08:42:25;;;;;;;8.17;7.40;;;;;;;16.69;46.15;99390.63;7003188;28;20227;-80
2022/04/27 08:45:46;;;;;;;7.23;6.57;;;;;;;15.91;48.08;99405.13;7001946;28;20307;-80
2022/04/27 08:49:10;;;;;;;6.13;5.50;;;;;;;16.15;47.68;99420.56;7003140;28;20206;-80
2022/04/27 08:52:31;;;;;;;6.60;5.87;;;;;;;15.56;49.19;99423.03;7004021;28;20240;-80
2022/04/27 08:55:53;;;;;;;7.10;5.90;;;;;;;15.11;50.22;99426.88;7004582;28;20262;-80
2022/04/27 08:59:16;;;;;;;6.27;5.63;;;;;;;16.22;48.57;99426.78;7004946;28;20209;-80
2022/04/27 09:02:37;;;;;;;7.17;6.20;;;;;;;15.84;49.27;99431.56;7005170;28;20228;-80
2022/04/27 09:06:00;;;;;;;6.50;5.63;;;;;;;15.86;48.57;99439.50;7024171;28;20228;-80
2022/04/27 09:09:36;;;;;;;7.23;6.53;;;;;;;16.84;48.13;99436.53;7009062;28;20216;-80
2022/04/27 09:12:58;;;;;;;7.03;5.77;;;;;;;17.27;46.24;99435.28;7007903;28;20275;-80
2022/04/27 09:16:23;;;;;;;6.20;5.60;;;;;;;17.27;46.12;99427.09;7008434;28;20211;-80
2022/04/27 09:23:25;;;;;;;6.13;5.20;;;;;;;16.30;46.76;99434.66;7008168;28;20216;-80
2022/04/27 09:26:58;;;;;;;5.97;5.37;;;;;;;15.94;47.96;99437.34;7007817;28;20233;-80
2022/04/27 09:30:26;;;;;;;5.97;5.37;;;;;;;16.91;46.43;99437.25;7007896;28;20275;-80
2022/04/27 09:33:58;;;;;;;6.00;5.40;;;;;;;16.75;47.08;99443.34;7008070;28;20191;-80
2022/04/27 09:37:21;;;;;;;6.47;5.70;;;;;;;16.77;45.98;99442.06;7008278;28;20184;-79
2022/04/27 09:40:45;;;;;;;6.00;5.43;;;;;;;16.48;46.08;99382.13;7008279;28;20259;-81
2022/04/27 09:44:06;;;;;;;5.97;5.30;;;;;;;17.24;45.69;99437.63;7008462;28;20201;-80
2022/04/27 09:47:28;;;;;;;6.40;5.50;;;;;;;16.93;45.46;99438.69;7008078;28;20267;-80
2022/04/27 09:50:55;;;;;;;5.73;4.70;;;;;;;15.94;47.21;99426.47;7007469;28;20226;-80
2022/04/27 09:54:20;;;;;;;5.37;4.87;;;;;;;16.06;47.06;99423.81;7008375;28;20570;-80
2022/04/27 09:57:42;;;;;;;4.57;4.17;;;;;;;16.95;45.34;99435.75;7006951;28;20190;-80
2022/04/27 10:01:05;;;;;;;5.47;4.23;;;;;;;18.34;43.70;99432.22;7008466;28;20240;-81
2022/04/27 10:04:29;;;;;;;5.47;4.80;;;;;;;17.82;43.00;99425.78;7008421;28;20202;-80
2022/04/27 10:07:52;;;;;;;4.90;4.37;;;;;;;18.47;42.67;99391.84;7007064;28;20221;-80
2022/04/27 10:11:14;;;;;;;4.87;4.23;;;;;;;18.98;42.85;99418.28;7008094;28;20608;-80
2022/04/27 10:14:36;;;;;;;4.80;4.40;;;;;;;18.87;42.94;99419.16;7008020;28;20208;-80
2022/04/27 10:17:57;;;;;;;4.10;3.80;;;;;;;18.56;42.25;99427.78;7010200;28;20251;-80
2022/04/27 10:21:39;;;;;;;4.70;4.20;;;;;;;18.66;42.02;99433.47;7007463;28;20253;-80
2022/04/27 10:25:07;;;;;;;4.33;3.87;;;;;;;18.51;42.27;99430.44;7007090;28;20232;-80
2022/04/27 10:28:29;;;;;;;5.07;4.10;;;;;;;18.31;42.96;99428.06;7005863;28;20239;-80
2022/04/27 10:32:02;;;;;;;4.13;3.73;;;;;;;18.60;42.69;99407.13;7007173;28;20225;-80
2022/04/27 10:35:29;;;;;;;6.27;3.80;;;;;;;18.53;42.53;99418.19;7007396;28;20210;-80
2022/04/27 10:39:20;;;;;;;5.63;3.80;;;;;;;18.37;42.55;99435.31;7005375;28;20529;-80
2022/04/27 10:42:43;;;;;;;5.10;4.60;;;;;;;17.69;44.49;99428.75;7005992;28;20244;-80
2022/04/27 10:46:38;;;;;;;5.40;4.90;;;;;;;18.09;42.98;99435.19;7006931;28;20230;-80
2022/04/27 10:50:18;;;;;;;4.40;4.00;;;;;;;18.59;42.62;99443.69;7006330;28;20196;-80
2022/04/27 10:53:41;;;;;;;5.30;4.80;;;;;;;18.28;43.28;99428.50;7006603;28;20199;-80
2022/04/27 10:57:41;;;;;;;5.10;4.63;;;;;;;18.06;43.23;99435.66;7005776;28;20197;-80
2022/04/27 11:01:30;;;;;;;5.10;4.60;;;;;;;18.30;43.26;99445.50;7006394;28;20225;-80
2022/04/27 11:04:52;;;;;;;5.50;5.00;;;;;;;18.44;43.77;99410.59;7007005;28;20193;-80
2022/04/27 11:08:18;;;;;;;5.40;4.90;;;;;;;18.66;42.28;99441.66;7005819;28;20221;-80
2022/04/27 11:11:54;;;;;;;5.30;4.80;;;;;;;19.28;40.01;99416.16;7005981;28;20229;-80
2022/04/27 11:15:18;;;;;;;4.83;4.40;;;;;;;20.07;40.64;99433.13;7005473;28;20193;-80
2022/04/27 11:18:50;;;;;;;5.37;4.87;;;;;;;19.61;40.91;99432.56;7005388;28;20217;-80
2022/04/27 11:22:13;;;;;;;4.93;4.53;;;;;;;20.46;40.03;99428.47;7006022;28;20283;-80
2022/04/27 11:25:36;;;;;;;4.90;4.50;;;;;;;20.77;38.32;99416.81;7005835;28;20213;-80
2022/04/27 11:28:58;;;;;;;5.03;4.63;;;;;;;20.07;39.11;99408.47;7004675;28;20222;-81
2022/04/27 11:32:20;;;;;;;5.10;4.70;;;;;;;19.93;38.32;99428.19;7005348;28;20272;-81
2022/04/27 11:35:45;;;;;;;5.83;5.23;;;;;;;18.80;40.50;99430.22;7005342;28;20213;-80
2022/04/27 11:39:07;;;;;;;4.80;4.40;;;;;;;19.45;41.29;99423.28;7005432;28;20274;-80
2022/04/27 11:42:28;;;;;;;6.23;4.87;;;;;;;19.97;39.57;99418.38;7005771;28;20729;-80
2022/04/27 11:45:51;;;;;;;4.90;4.50;;;;;;;20.48;39.00;99423.56;7004658;28;20216;-81
2022/04/27 11:49:12;;;;;;;5.17;4.67;;;;;;;20.27;38.64;99421.63;7005093;28;20202;-80
2022/04/27 11:52:39;;;;;;;4.63;4.23;;;;;;;20.84;37.88;99418.28;7004320;28;20228;-80
2022/04/27 11:56:01;;;;;;;4.33;3.97;;;;;;;20.68;37.69;99410.94;7004927;28;20209;-80
2022/04/27 11:59:23;;;;;;;4.60;4.20;;;;;;;19.23;37.04;99403.19;7004753;28;20205;-80
2022/04/27 12:02:44;;;;;;;4.77;4.37;;;;;;;19.14;39.88;99412.00;7004669;28;20241;-80
2022/04/27 12:06:06;;;;;;;4.63;4.23;;;;;;;19.75;37.63;99412.03;7003407;28;20269;-80
2022/04/27 12:09:29;;;;;;;4.20;3.80;;;;;;;21.04;35.72;99382.88;7004620;28;20208;-80
2022/04/27 12:12:51;;;;;;;3.63;3.30;;;;;;;20.53;38.17;99404.44;7012019;28;20230;-80
2022/04/27 12:16:12;;;;;;;4.63;4.23;;;;;;;19.42;36.96;99401.91;7018825;28;20206;-80
2022/04/27 12:19:36;;;;;;;4.87;4.47;;;;;;;20.28;38.01;99404.13;7030259;28;20698;-80
2022/04/27 12:22:59;;;;;;;4.17;3.87;;;;;;;20.87;36.73;99398.56;7032179;28;20234;-80
2022/04/27 12:26:22;;;;;;;3.80;3.50;;;;;;;20.74;36.80;99406.38;7031886;28;20236;-80
2022/04/27 12:29:44;;;;;;;3.83;3.53;;;;;;;20.56;36.84;99414.88;7025557;28;20587;-80
2022/04/27 12:33:06;;;;;;;5.03;4.63;;;;;;;19.45;38.60;99406.06;7009829;28;20226;-80
2022/04/27 12:40:14;;;;;;;5.27;4.77;;;;;;;17.47;42.58;99414.03;6997720;28;20216;-80
2022/04/27 12:43:49;;;;;;;4.40;4.00;;;;;;;18.30;43.09;99412.75;7036925;28;20201;-80
2022/04/27 12:47:12;;;;;;;4.27;3.90;;;;;;;18.98;41.81;99386.28;7031937;28;20212;-80
2022/04/27 12:50:34;;;;;;;4.87;4.37;;;;;;;18.85;41.24;99415.81;7008850;28;20276;-80
2022/04/27 12:53:57;;;;;;;5.37;4.97;;;;;;;18.33;41.22;99409.53;7008671;28;20279;-80
2022/04/27 12:57:19;;;;;;;4.43;4.00;;;;;;;18.63;41.46;99388.34;7008270;28;20700;-80
2022/04/27 13:00:45;;;;;;;4.87;4.47;;;;;;;18.94;41.18;99385.16;7008192;28;20229;-80
2022/04/27 13:04:07;;;;;;;5.07;4.33;;;;;;;18.97;40.91;99400.19;7008811;28;20193;-80
2022/04/27 13:07:28;;;;;;;4.13;3.80;;;;;;;19.00;41.38;99403.31;7008296;28;20236;-80
2022/04/27 13:14:29;;;;;;;4.63;4.23;;;;;;;18.43;42.72;99407.03;7008621;28;20217;-80
2022/04/27 13:17:52;;;;;;;4.20;3.90;;;;;;;19.21;41.44;99386.22;7007545;28;20631;-80
2022/04/27 13:21:16;;;;;;;4.83;4.43;;;;;;;19.43;40.40;99402.72;7008412;28;20233;-80
2022/04/27 13:24:38;;;;;;;4.53;4.13;;;;;;;19.37;41.20;99410.03;7020109;28;20200;-80
2022/04/27 13:27:59;;;;;;;5.47;4.63;;;;;;;19.18;41.20;99403.09;7035806;28;20232;-80
2022/04/27 13:31:21;;;;;;;4.97;4.57;;;;;;;19.44;40.60;99410.69;7036214;28;20263;-80
2022/04/27 13:34:44;;;;;;;4.80;4.40;;;;;;;19.52;41.01;99402.06;7036284;28;20211;-80
2022/04/27 13:38:06;;;;;;;4.70;4.30;;;;;;;19.94;40.06;99395.06;7035147;28;20277;-80
2022/04/27 13:41:28;;;;;;;4.83;4.43;;;;;;;20.16;39.54;99386.97;7035937;28;20240;-80
2022/04/27 13:44:50;;;;;;;4.50;4.13;;;;;;;19.79;39.75;99394.03;7036391;28;20208;-80
2022/04/27 13:48:12;;;;;;;5.00;4.50;;;;;;;19.70;38.73;99387.31;7034777;28;20308;-80
2022/04/27 13:51:35;;;;;;;5.33;4.83;;;;;;;19.50;39.81;99390.56;7034593;28;20247;-80
2022/04/27 13:54:57;;;;;;;5.40;4.90;;;;;;;19.87;38.81;99402.63;7035986;28;20227;-80
2022/04/27 13:58:19;;;;;;;5.40;4.90;;;;;;;20.32;37.53;99397.88;7036370;28;20202;-80
2022/04/27 14:01:40;;;;;;;5.83;5.03;;;;;;;20.87;37.46;99373.06;7037316;28;20608;-80
2022/04/27 14:05:02;;;;;;;5.90;5.07;;;;;;;20.82;36.13;99386.72;7036988;28;20205;-80
2022/04/27 14:08:25;;;;;;;5.43;5.00;;;;;;;19.22;39.80;99378.84;7037215;28;20230;-80
2022/04/27 14:15:26;;;;;;;6.37;5.43;;;;;;;20.47;36.49;99354.25;7034605;28;20201;-80
2022/04/27 14:18:46;;;;;;;5.07;4.60;;;;;;;21.48;35.90;99376.19;7034298;28;20226;-80
2022/04/27 14:22:11;;;;;;;5.37;4.87;;;;;;;20.55;37.17;99367.50;7034824;28;20246;-81
2022/04/27 14:25:35;;;;;;;4.83;4.43;;;;;;;;;;7034954;28;20215;-80
2022/04/27 14:28:59;;;;;;;4.87;4.40;;;;;;;20.50;36.55;99375.66;7034131;28;20228;-81
2022/04/27 14:32:21;;;;;;;4.80;4.40;;;;;;;21.23;36.76;99373.19;7034473;28;20228;-80
2022/04/27 14:35:44;;;;;;;4.50;4.10;;;;;;;21.12;36.39;99357.75;7033454;28;20293;-80
2022/04/27 14:39:06;;;;;;;4.80;4.40;;;;;;;20.67;35.60;99369.00;7033217;28;20219;-80
2022/04/27 14:42:28;;;;;;;5.20;4.80;;;;;;;20.53;35.65;99377.06;7034589;28;20224;-80
2022/04/27 14:45:50;;;;;;;5.00;4.50;;;;;;;19.87;36.90;99367.06;7036724;28;20213;-80
2022/04/27 14:49:12;;;;;;;5.73;4.67;;;;;;;20.34;36.31;99384.75;7034400;28;20225;-80
2022/04/27 14:52:34;;;;;;;4.87;4.47;;;;;;;20.18;36.67;99379.31;7033367;28;20233;-80
2022/04/27 14:55:56;;;;;;;5.07;4.57;;;;;;;20.82;35.91;99379.31;7033481;28;20205;-79
2022/04/27 14:59:19;;;;;;;5.90;4.90;;;;;;;21.20;34.18;99374.53;7033798;28;20285;-80
2022/04/27 15:02:40;;;;;;;5.37;4.87;;;;;;;20.49;34.50;99357.56;7032766;28;20226;-81
2022/04/27 15:06:02;;;;;;;5.67;5.17;;;;;;;20.55;34.04;99293.53;7015458;28;20193;-78
2022/04/27 15:09:23;;;;;;;5.97;5.03;;;;;;;20.75;34.38;99369.66;7034516;28;20231;-79
2022/04/27 15:12:45;;;;;;;6.27;5.20;;;;;;;19.56;36.35;99347.69;7032705;28;20628;-80
2022/04/27 15:16:08;;;;;;;6.17;5.57;;;;;;;20.64;34.86;99365.94;7036870;28;20252;-79
2022/04/27 15:19:30;;;;;;;5.03;4.63;;;;;;;21.08;34.93;99326.44;7023241;28;20234;-81
2022/04/27 15:22:51;;;;;;;5.00;4.60;;;;;;;21.60;32.50;99347.47;7018492;28;20222;-81
2022/04/27 15:26:12;;;;;;;5.30;4.80;;;;;;;21.48;33.09;99357.78;7003520;28;20206;-81
2022/04/27 15:29:35;;;;;;;4.93;4.53;;;;;;;20.04;33.34;99350.63;7007438;28;20682;-81
2022/04/27 15:32:59;;;;;;;5.10;4.33;;;;;;;20.62;34.10;99348.94;7018452;28;20228;-80
2022/04/27 15:36:21;;;;;;;4.60;4.13;;;;;;;20.45;33.73;99350.13;7030648;28;20206;-80
2022/04/27 15:39:42;;;;;;;5.40;4.90;;;;;;;19.29;34.50;99319.38;7030226;28;20559;-80
2022/04/27 15:43:06;;;;;;;4.93;4.53;;;;;;;20.83;33.25;99350.00;7031986;28;20279;-81
2022/04/27 15:46:28;;;;;;;5.13;4.63;;;;;;;21.38;31.90;99343.16;7030957;28;20212;-80
2022/04/27 15:49:51;;;;;;;5.63;4.20;;;;;;;21.03;33.32;99345.59;7025343;28;20216;-80
2022/04/27 15:53:13;;;;;;;4.53;4.13;;;;;;;20.71;33.03;99341.94;7031207;28;20213;-80
2022/04/27 15:56:35;;;;;;;4.63;4.23;;;;;;;21.18;31.41;99343.81;7030161;28;20202;-80
2022/04/27 15:59:57;;;;;;;4.60;4.20;;;;;;;20.37;31.85;99339.59;7031703;28;20646;-80
2022/04/27 16:03:19;;;;;;;4.63;4.23;;;;;;;20.09;32.52;99354.28;7031161;28;20583;-80
2022/04/27 16:06:42;;;;;;;4.37;4.00;;;;;;;20.23;33.08;99358.28;7030657;28;20208;-80
2022/04/27 16:10:07;;;;;;;4.43;4.03;;;;;;;20.13;33.69;99355.44;7031751;28;20632;-80
2022/04/27 16:13:29;;;;;;;5.03;4.53;;;;;;;20.05;32.64;99355.00;7031325;28;20211;-80
2022/04/27 16:16:51;;;;;;;4.87;4.43;;;;;;;20.20;32.77;99356.09;7029078;28;20208;-80